sensor_id;sensor_type;location;lat;lon;timestamp;pressure;altitude;pressure_sealevel;temperature;humidity
35577;BME280;21680;52.400;16.920;2023-08-07T00:01:18;99166.04;;;13.14;100.00
35577;BME280;21680;52.400;16.920;2023-08-07T00:03:43;99174.63;;;13.15;100.00
35577;BME280;21680;52.400;16.920;2023-08-07T00:06:09;99171.70;;;13.15;100.00
35577;BME280;21680;52.400;16.920;2023-08-07T00:08:34;99173.31;;;13.16;100.00
35577;BME280;21680;52.400;16.920;2023-08-07T00:11:08;99171.16;;;13.15;100.00
35577;BME280;21680;52.400;16.920;2023-08-07T00:13:34;99169.38;;;13.13;100.00
35577;BME280;21680;52.400;16.920;2023-08-07T00:15:59;99176.40;;;13.13;100.00
35577;BME280;21680;52.400;16.920;2023-08-07T00:18:24;99168.55;;;13.12;100.00
35577;BME280;21680;52.400;16.920;2023-08-07T00:20:50;99168.84;;;13.11;100.00
35577;BME280;21680;52.400;16.920;2023-08-07T00:23:15;99170.19;;;13.12;100.00
35577;BME280;21680;52.400;16.920;2023-08-07T00:25:40;99178.63;;;13.12;100.00
35577;BME280;21680;52.400;16.920;2023-08-07T00:28:06;99177.35;;;13.12;100.00
35577;BME280;21680;52.400;16.920;2023-08-07T00:30:31;99170.16;;;13.12;100.00
35577;BME280;21680;52.400;16.920;2023-08-07T00:32:57;99178.34;;;13.13;100.00
35577;BME280;21680;52.400;16.920;2023-08-07T00:35:22;99181.67;;;13.12;100.00
35577;BME280;21680;52.400;16.920;2023-08-07T00:37:47;99185.52;;;13.11;100.00
35577;BME280;21680;52.400;16.920;2023-08-07T00:40:12;99189.38;;;13.09;100.00
35577;BME280;21680;52.400;16.920;2023-08-07T00:42:37;99194.24;;;13.09;100.00
35577;BME280;21680;52.400;16.920;2023-08-07T00:45:04;99192.67;;;13.09;100.00
35577;BME280;21680;52.400;16.920;2023-08-07T00:47:30;99191.04;;;13.09;100.00
35577;BME280;21680;52.400;16.920;2023-08-07T00:49:57;99193.02;;;13.06;100.00
35577;BME280;21680;52.400;16.920;2023-08-07T00:52:23;99190.66;;;13.05;100.00
35577;BME280;21680;52.400;16.920;2023-08-07T00:54:51;99188.45;;;13.05;100.00
35577;BME280;21680;52.400;16.920;2023-08-07T00:57:19;99188.55;;;13.04;100.00
35577;BME280;21680;52.400;16.920;2023-08-07T00:59:48;99196.02;;;13.03;100.00
35577;BME280;21680;52.400;16.920;2023-08-07T01:02:14;99198.34;;;13.00;100.00
35577;BME280;21680;52.400;16.920;2023-08-07T01:04:40;99196.52;;;13.00;100.00
35577;BME280;21680;52.400;16.920;2023-08-07T01:07:06;99205.66;;;13.01;100.00
35577;BME280;21680;52.400;16.920;2023-08-07T01:09:31;99206.27;;;13.00;100.00
35577;BME280;21680;52.400;16.920;2023-08-07T01:12:15;99202.14;;;13.00;100.00
35577;BME280;21680;52.400;16.920;2023-08-07T01:14:48;99209.83;;;13.00;100.00
35577;BME280;21680;52.400;16.920;2023-08-07T01:17:16;99200.04;;;12.99;100.00
35577;BME280;21680;52.400;16.920;2023-08-07T01:19:44;99193.41;;;12.99;100.00
35577;BME280;21680;52.400;16.920;2023-08-07T01:22:15;99189.42;;;13.00;100.00
35577;BME280;21680;52.400;16.920;2023-08-07T01:24:45;99183.59;;;12.99;100.00
35577;BME280;21680;52.400;16.920;2023-08-07T01:32:32;99181.68;;;12.93;100.00
35577;BME280;21680;52.400;16.920;2023-08-07T01:35:01;99177.60;;;12.93;100.00
35577;BME280;21680;52.400;16.920;2023-08-07T01:37:29;99172.27;;;12.92;100.00
35577;BME280;21680;52.400;16.920;2023-08-07T01:39:58;99179.30;;;12.92;100.00
35577;BME280;21680;52.400;16.920;2023-08-07T01:42:25;99179.05;;;12.90;100.00
35577;BME280;21680;52.400;16.920;2023-08-07T01:44:51;99184.77;;;12.88;100.00
35577;BME280;21680;52.400;16.920;2023-08-07T01:47:16;99188.26;;;12.87;100.00
35577;BME280;21680;52.400;16.920;2023-08-07T01:49:41;99183.02;;;12.85;100.00
35577;BME280;21680;52.400;16.920;2023-08-07T01:52:08;99187.29;;;12.83;100.00
35577;BME280;21680;52.400;16.920;2023-08-07T01:54:34;99186.27;;;12.80;100.00
35577;BME280;21680;52.400;16.920;2023-08-07T01:56:59;99182.16;;;12.78;100.00
35577;BME280;21680;52.400;16.920;2023-08-07T01:59:24;99181.52;;;12.77;100.00
35577;BME280;21680;52.400;16.920;2023-08-07T02:01:49;99180.30;;;12.76;100.00
35577;BME280;21680;52.400;16.920;2023-08-07T02:04:15;99182.21;;;12.75;100.00
35577;BME280;21680;52.400;16.920;2023-08-07T02:06:40;99180.12;;;12.72;100.00
35577;BME280;21680;52.400;16.920;2023-08-07T02:09:05;99180.58;;;12.70;100.00
35577;BME280;21680;52.400;16.920;2023-08-07T02:11:30;99178.13;;;12.69;100.00
35577;BME280;21680;52.400;16.920;2023-08-07T02:13:56;99175.06;;;12.70;100.00
35577;BME280;21680;52.400;16.920;2023-08-07T02:16:21;99173.83;;;12.69;100.00
35577;BME280;21680;52.400;16.920;2023-08-07T02:18:46;99168.60;;;12.67;100.00
35577;BME280;21680;52.400;16.920;2023-08-07T02:21:11;99164.34;;;12.67;100.00
35577;BME280;21680;52.400;16.920;2023-08-07T02:23:37;99166.44;;;12.65;100.00
35577;BME280;21680;52.400;16.920;2023-08-07T02:26:02;99165.04;;;12.65;100.00
35577;BME280;21680;52.400;16.920;2023-08-07T02:28:27;99161.18;;;12.64;100.00
35577;BME280;21680;52.400;16.920;2023-08-07T02:30:52;99156.77;;;12.63;100.00
35577;BME280;21680;52.400;16.920;2023-08-07T02:33:19;99153.13;;;12.61;100.00
35577;BME280;21680;52.400;16.920;2023-08-07T02:35:44;99149.00;;;12.61;100.00
35577;BME280;21680;52.400;16.920;2023-08-07T02:38:10;99141.52;;;12.61;100.00
35577;BME280;21680;52.400;16.920;2023-08-07T02:40:36;99144.91;;;12.61;100.00
35577;BME280;21680;52.400;16.920;2023-08-07T02:43:01;99144.29;;;12.59;100.00
35577;BME280;21680;52.400;16.920;2023-08-07T02:45:26;99151.83;;;12.59;100.00
35577;BME280;21680;52.400;16.920;2023-08-07T02:47:51;99154.92;;;12.58;100.00
35577;BME280;21680;52.400;16.920;2023-08-07T02:50:16;99156.63;;;12.57;100.00
35577;BME280;21680;52.400;16.920;2023-08-07T02:52:42;99155.77;;;12.57;100.00
35577;BME280;21680;52.400;16.920;2023-08-07T02:55:07;99158.11;;;12.57;100.00
35577;BME280;21680;52.400;16.920;2023-08-07T02:57:33;99161.92;;;12.56;100.00
35577;BME280;21680;52.400;16.920;2023-08-07T02:59:58;99166.95;;;12.56;100.00
35577;BME280;21680;52.400;16.920;2023-08-07T03:02:23;99164.41;;;12.56;100.00
35577;BME280;21680;52.400;16.920;2023-08-07T03:04:48;99178.64;;;12.55;100.00
35577;BME280;21680;52.400;16.920;2023-08-07T03:07:13;99177.16;;;12.54;100.00
35577;BME280;21680;52.400;16.920;2023-08-07T03:09:39;99176.41;;;12.52;100.00
35577;BME280;21680;52.400;16.920;2023-08-07T03:12:05;99172.02;;;12.48;100.00
35577;BME280;21680;52.400;16.920;2023-08-07T03:14:30;99174.77;;;12.47;100.00
35577;BME280;21680;52.400;16.920;2023-08-07T03:16:55;99178.16;;;12.45;100.00
35577;BME280;21680;52.400;16.920;2023-08-07T03:19:21;99181.70;;;12.44;100.00
35577;BME280;21680;52.400;16.920;2023-08-07T03:21:46;99195.29;;;12.41;100.00
35577;BME280;21680;52.400;16.920;2023-08-07T03:24:12;99189.02;;;12.39;100.00
35577;BME280;21680;52.400;16.920;2023-08-07T03:26:37;99197.02;;;12.35;100.00
35577;BME280;21680;52.400;16.920;2023-08-07T03:29:02;99192.92;;;12.32;100.00
35577;BME280;21680;52.400;16.920;2023-08-07T03:31:27;99200.38;;;12.31;100.00
35577;BME280;21680;52.400;16.920;2023-08-07T03:33:53;99207.11;;;12.29;100.00
35577;BME280;21680;52.400;16.920;2023-08-07T03:36:18;99195.89;;;12.28;100.00
35577;BME280;21680;52.400;16.920;2023-08-07T03:38:44;99197.69;;;12.26;100.00
35577;BME280;21680;52.400;16.920;2023-08-07T03:41:09;99206.61;;;12.24;100.00
35577;BME280;21680;52.400;16.920;2023-08-07T03:43:35;99213.41;;;12.21;100.00
35577;BME280;21680;52.400;16.920;2023-08-07T03:46:00;99210.59;;;12.19;100.00
35577;BME280;21680;52.400;16.920;2023-08-07T03:48:25;99219.40;;;12.16;100.00
35577;BME280;21680;52.400;16.920;2023-08-07T03:50:51;99225.56;;;12.12;100.00
35577;BME280;21680;52.400;16.920;2023-08-07T03:53:16;99233.38;;;12.10;100.00
35577;BME280;21680;52.400;16.920;2023-08-07T03:55:41;99231.70;;;12.09;100.00
35577;BME280;21680;52.400;16.920;2023-08-07T03:58:07;99235.41;;;12.07;100.00
35577;BME280;21680;52.400;16.920;2023-08-07T04:00:32;99241.74;;;12.07;100.00
35577;BME280;21680;52.400;16.920;2023-08-07T04:02:58;99238.99;;;12.05;100.00
35577;BME280;21680;52.400;16.920;2023-08-07T04:05:23;99237.14;;;12.03;100.00
35577;BME280;21680;52.400;16.920;2023-08-07T04:07:49;99249.42;;;12.01;100.00
35577;BME280;21680;52.400;16.920;2023-08-07T04:10:14;99248.46;;;12.00;100.00
35577;BME280;21680;52.400;16.920;2023-08-07T04:12:39;99248.41;;;12.00;100.00
35577;BME280;21680;52.400;16.920;2023-08-07T04:15:05;99250.50;;;12.01;100.00
35577;BME280;21680;52.400;16.920;2023-08-07T04:17:31;99257.98;;;12.02;100.00
35577;BME280;21680;52.400;16.920;2023-08-07T04:19:57;99260.10;;;12.02;100.00
35577;BME280;21680;52.400;16.920;2023-08-07T04:22:22;99254.10;;;12.03;100.00
35577;BME280;21680;52.400;16.920;2023-08-07T04:24:47;99257.21;;;12.05;100.00
35577;BME280;21680;52.400;16.920;2023-08-07T04:27:12;99250.84;;;12.07;100.00
35577;BME280;21680;52.400;16.920;2023-08-07T04:29:38;99246.91;;;12.09;100.00
35577;BME280;21680;52.400;16.920;2023-08-07T04:32:03;99243.33;;;12.12;100.00
35577;BME280;21680;52.400;16.920;2023-08-07T04:34:29;99245.95;;;12.15;100.00
35577;BME280;21680;52.400;16.920;2023-08-07T04:36:54;99241.13;;;12.17;100.00
35577;BME280;21680;52.400;16.920;2023-08-07T04:39:21;99244.92;;;12.19;100.00
35577;BME280;21680;52.400;16.920;2023-08-07T04:41:47;99248.04;;;12.21;100.00
35577;BME280;21680;52.400;16.920;2023-08-07T04:44:15;99239.85;;;12.22;100.00
35577;BME280;21680;52.400;16.920;2023-08-07T04:46:41;99239.19;;;12.24;100.00
35577;BME280;21680;52.400;16.920;2023-08-07T04:49:06;99230.48;;;12.28;100.00
35577;BME280;21680;52.400;16.920;2023-08-07T04:51:31;99229.33;;;12.31;100.00
35577;BME280;21680;52.400;16.920;2023-08-07T04:53:56;99240.41;;;12.34;100.00
35577;BME280;21680;52.400;16.920;2023-08-07T04:56:22;99247.56;;;12.37;100.00
35577;BME280;21680;52.400;16.920;2023-08-07T04:58:47;99244.80;;;12.41;100.00
35577;BME280;21680;52.400;16.920;2023-08-07T05:01:13;99247.80;;;12.44;100.00
35577;BME280;21680;52.400;16.920;2023-08-07T05:03:38;99253.20;;;12.48;100.00
35577;BME280;21680;52.400;16.920;2023-08-07T05:06:03;99248.02;;;12.52;100.00
35577;BME280;21680;52.400;16.920;2023-08-07T05:08:28;99250.29;;;12.58;100.00
35577;BME280;21680;52.400;16.920;2023-08-07T05:10:54;99255.82;;;12.63;100.00
35577;BME280;21680;52.400;16.920;2023-08-07T05:13:19;99251.59;;;12.67;100.00
35577;BME280;21680;52.400;16.920;2023-08-07T05:15:47;99252.44;;;12.70;100.00
35577;BME280;21680;52.400;16.920;2023-08-07T05:18:12;99258.82;;;12.74;100.00
35577;BME280;21680;52.400;16.920;2023-08-07T05:20:37;99263.25;;;12.77;100.00
35577;BME280;21680;52.400;16.920;2023-08-07T05:23:03;99265.02;;;12.79;100.00
35577;BME280;21680;52.400;16.920;2023-08-07T05:25:28;99261.30;;;12.81;100.00
35577;BME280;21680;52.400;16.920;2023-08-07T05:27:53;99261.23;;;12.87;100.00
35577;BME280;21680;52.400;16.920;2023-08-07T05:30:18;99268.86;;;12.93;100.00
35577;BME280;21680;52.400;16.920;2023-08-07T05:32:44;99253.33;;;13.01;100.00
35577;BME280;21680;52.400;16.920;2023-08-07T05:35:09;99261.27;;;13.08;100.00
35577;BME280;21680;52.400;16.920;2023-08-07T05:37:35;99260.06;;;13.14;100.00
35577;BME280;21680;52.400;16.920;2023-08-07T05:40:01;99261.55;;;13.23;100.00
35577;BME280;21680;52.400;16.920;2023-08-07T05:42:27;99267.55;;;13.31;100.00
35577;BME280;21680;52.400;16.920;2023-08-07T05:44:52;99265.70;;;13.42;100.00
35577;BME280;21680;52.400;16.920;2023-08-07T05:47:17;99276.36;;;13.50;100.00
35577;BME280;21680;52.400;16.920;2023-08-07T05:49:43;99271.41;;;13.58;100.00
35577;BME280;21680;52.400;16.920;2023-08-07T05:52:08;99284.69;;;13.67;100.00
35577;BME280;21680;52.400;16.920;2023-08-07T05:54:34;99284.75;;;13.76;100.00
35577;BME280;21680;52.400;16.920;2023-08-07T05:56:59;99290.23;;;13.81;100.00
35577;BME280;21680;52.400;16.920;2023-08-07T05:59:25;99283.63;;;13.87;100.00
35577;BME280;21680;52.400;16.920;2023-08-07T06:01:51;99288.22;;;13.98;100.00
35577;BME280;21680;52.400;16.920;2023-08-07T06:04:17;99296.00;;;14.06;100.00
35577;BME280;21680;52.400;16.920;2023-08-07T06:06:42;99293.13;;;14.13;100.00
35577;BME280;21680;52.400;16.920;2023-08-07T06:09:08;99296.53;;;14.21;100.00
35577;BME280;21680;52.400;16.920;2023-08-07T06:11:33;99303.52;;;14.31;100.00
35577;BME280;21680;52.400;16.920;2023-08-07T06:13:59;99293.73;;;14.39;100.00
35577;BME280;21680;52.400;16.920;2023-08-07T06:16:24;99299.74;;;14.45;100.00
35577;BME280;21680;52.400;16.920;2023-08-07T06:18:50;99300.33;;;14.48;100.00
35577;BME280;21680;52.400;16.920;2023-08-07T06:21:15;99312.46;;;14.52;100.00
35577;BME280;21680;52.400;16.920;2023-08-07T06:23:41;99317.04;;;14.53;100.00
35577;BME280;21680;52.400;16.920;2023-08-07T06:26:07;99322.43;;;14.55;100.00
35577;BME280;21680;52.400;16.920;2023-08-07T06:28:34;99322.77;;;14.62;100.00
35577;BME280;21680;52.400;16.920;2023-08-07T06:31:01;99329.41;;;14.69;100.00
35577;BME280;21680;52.400;16.920;2023-08-07T06:33:27;99331.73;;;14.74;100.00
35577;BME280;21680;52.400;16.920;2023-08-07T06:35:52;99338.48;;;14.77;100.00
35577;BME280;21680;52.400;16.920;2023-08-07T06:38:17;99335.75;;;14.79;100.00
35577;BME280;21680;52.400;16.920;2023-08-07T06:40:44;99337.02;;;14.82;100.00
35577;BME280;21680;52.400;16.920;2023-08-07T06:43:09;99343.88;;;14.83;100.00
35577;BME280;21680;52.400;16.920;2023-08-07T06:45:34;99337.38;;;14.88;100.00
35577;BME280;21680;52.400;16.920;2023-08-07T06:48:00;99343.27;;;14.97;100.00
35577;BME280;21680;52.400;16.920;2023-08-07T06:50:25;99346.52;;;15.10;100.00
35577;BME280;21680;52.400;16.920;2023-08-07T06:52:50;99341.48;;;15.17;100.00
35577;BME280;21680;52.400;16.920;2023-08-07T06:55:16;99336.23;;;15.21;100.00
35577;BME280;21680;52.400;16.920;2023-08-07T06:57:41;99348.71;;;15.27;100.00
35577;BME280;21680;52.400;16.920;2023-08-07T07:00:07;99333.61;;;15.29;100.00
35577;BME280;21680;52.400;16.920;2023-08-07T07:02:34;99340.46;;;15.36;100.00
35577;BME280;21680;52.400;16.920;2023-08-07T07:05:00;99344.55;;;15.38;100.00
35577;BME280;21680;52.400;16.920;2023-08-07T07:07:25;99344.25;;;15.39;100.00
35577;BME280;21680;52.400;16.920;2023-08-07T07:09:50;99345.92;;;15.43;100.00
35577;BME280;21680;52.400;16.920;2023-08-07T07:12:15;99348.04;;;15.44;100.00
35577;BME280;21680;52.400;16.920;2023-08-07T07:14:41;99347.79;;;15.44;100.00
35577;BME280;21680;52.400;16.920;2023-08-07T07:17:06;99358.25;;;15.44;100.00
35577;BME280;21680;52.400;16.920;2023-08-07T07:19:31;99353.16;;;15.45;99.96
35577;BME280;21680;52.400;16.920;2023-08-07T07:21:56;99354.17;;;15.50;100.00
35577;BME280;21680;52.400;16.920;2023-08-07T07:24:22;99358.67;;;15.50;99.74
35577;BME280;21680;52.400;16.920;2023-08-07T07:26:47;99360.05;;;15.46;98.55
35577;BME280;21680;52.400;16.920;2023-08-07T07:29:12;99362.06;;;15.48;98.71
35577;BME280;21680;52.400;16.920;2023-08-07T07:31:38;99362.16;;;15.49;98.33
35577;BME280;21680;52.400;16.920;2023-08-07T07:34:03;99368.99;;;15.53;98.78
35577;BME280;21680;52.400;16.920;2023-08-07T07:36:28;99372.76;;;15.60;98.16
35577;BME280;21680;52.400;16.920;2023-08-07T07:38:54;99379.42;;;15.64;97.60
35577;BME280;21680;52.400;16.920;2023-08-07T07:41:19;99381.39;;;15.68;96.12
35577;BME280;21680;52.400;16.920;2023-08-07T07:43:44;99384.65;;;15.73;96.05
35577;BME280;21680;52.400;16.920;2023-08-07T07:46:10;99392.25;;;15.74;94.61
35577;BME280;21680;52.400;16.920;2023-08-07T07:48:35;99387.32;;;15.79;94.80
35577;BME280;21680;52.400;16.920;2023-08-07T07:51:02;99390.36;;;15.90;95.27
35577;BME280;21680;52.400;16.920;2023-08-07T07:53:28;99389.63;;;16.03;95.74
35577;BME280;21680;52.400;16.920;2023-08-07T07:55:54;99388.40;;;16.15;95.11
35577;BME280;21680;52.400;16.920;2023-08-07T07:58:20;99381.52;;;16.24;93.97
35577;BME280;21680;52.400;16.920;2023-08-07T08:00:45;99383.38;;;16.36;94.33
35577;BME280;21680;52.400;16.920;2023-08-07T08:03:11;99383.98;;;16.43;94.78
35577;BME280;21680;52.400;16.920;2023-08-07T08:05:38;99380.20;;;16.47;95.15
35577;BME280;21680;52.400;16.920;2023-08-07T08:08:03;99382.68;;;16.55;95.04
35577;BME280;21680;52.400;16.920;2023-08-07T08:10:29;99372.46;;;16.63;94.90
35577;BME280;21680;52.400;16.920;2023-08-07T08:12:55;99373.05;;;16.73;95.34
35577;BME280;21680;52.400;16.920;2023-08-07T08:15:21;99376.54;;;16.82;94.93
35577;BME280;21680;52.400;16.920;2023-08-07T08:17:47;99384.21;;;16.85;94.40
35577;BME280;21680;52.400;16.920;2023-08-07T08:20:12;99397.84;;;16.82;93.33
35577;BME280;21680;52.400;16.920;2023-08-07T08:22:43;99399.98;;;16.80;93.09
35577;BME280;21680;52.400;16.920;2023-08-07T08:25:09;99396.41;;;16.78;91.88
35577;BME280;21680;52.400;16.920;2023-08-07T08:27:35;99398.77;;;16.78;91.59
35577;BME280;21680;52.400;16.920;2023-08-07T08:30:02;99397.51;;;16.90;91.63
35577;BME280;21680;52.400;16.920;2023-08-07T08:32:28;99400.95;;;17.05;91.13
35577;BME280;21680;52.400;16.920;2023-08-07T08:34:53;99395.71;;;17.18;90.82
35577;BME280;21680;52.400;16.920;2023-08-07T08:37:18;99395.14;;;17.30;90.83
35577;BME280;21680;52.400;16.920;2023-08-07T08:39:43;99399.04;;;17.27;88.23
35577;BME280;21680;52.400;16.920;2023-08-07T08:42:11;99396.19;;;17.27;88.43
35577;BME280;21680;52.400;16.920;2023-08-07T08:44:39;99396.71;;;17.30;88.32
35577;BME280;21680;52.400;16.920;2023-08-07T08:47:06;99399.21;;;17.29;88.45
35577;BME280;21680;52.400;16.920;2023-08-07T08:50:10;99406.55;;;17.22;87.68
35577;BME280;21680;52.400;16.920;2023-08-07T08:52:41;99400.09;;;17.05;88.02
35577;BME280;21680;52.400;16.920;2023-08-07T08:55:08;99410.31;;;17.02;88.40
35577;BME280;21680;52.400;16.920;2023-08-07T08:57:34;99414.14;;;17.05;88.53
35577;BME280;21680;52.400;16.920;2023-08-07T09:00:01;99412.88;;;17.13;88.84
35577;BME280;21680;52.400;16.920;2023-08-07T09:02:32;99420.60;;;17.20;88.42
35577;BME280;21680;52.400;16.920;2023-08-07T09:04:57;99422.47;;;17.17;87.61
35577;BME280;21680;52.400;16.920;2023-08-07T09:07:23;99415.88;;;17.12;87.69
35577;BME280;21680;52.400;16.920;2023-08-07T09:09:49;99427.55;;;17.09;86.95
35577;BME280;21680;52.400;16.920;2023-08-07T09:12:26;99436.66;;;17.06;85.74
35577;BME280;21680;52.400;16.920;2023-08-07T09:14:56;99413.55;;;17.08;85.68
35577;BME280;21680;52.400;16.920;2023-08-07T09:17:24;99405.73;;;17.21;86.20
35577;BME280;21680;52.400;16.920;2023-08-07T09:19:51;99413.48;;;17.35;86.23
35577;BME280;21680;52.400;16.920;2023-08-07T09:22:17;99417.38;;;17.45;85.93
35577;BME280;21680;52.400;16.920;2023-08-07T09:24:42;99416.89;;;17.56;84.32
35577;BME280;21680;52.400;16.920;2023-08-07T09:27:08;99419.20;;;17.67;83.35
35577;BME280;21680;52.400;16.920;2023-08-07T09:29:33;99422.36;;;17.78;82.68
35577;BME280;21680;52.400;16.920;2023-08-07T09:32:06;99426.41;;;17.87;82.61
35577;BME280;21680;52.400;16.920;2023-08-07T09:34:32;99426.27;;;17.88;81.68
35577;BME280;21680;52.400;16.920;2023-08-07T09:36:57;99433.58;;;17.97;82.37
35577;BME280;21680;52.400;16.920;2023-08-07T09:39:23;99431.83;;;18.10;81.57
35577;BME280;21680;52.400;16.920;2023-08-07T09:41:53;99445.98;;;18.17;79.67
35577;BME280;21680;52.400;16.920;2023-08-07T09:44:18;99444.81;;;18.14;77.27
35577;BME280;21680;52.400;16.920;2023-08-07T09:46:44;99446.98;;;18.02;75.37
35577;BME280;21680;52.400;16.920;2023-08-07T09:49:10;99453.90;;;17.96;74.91
35577;BME280;21680;52.400;16.920;2023-08-07T09:51:45;99461.80;;;17.95;73.09
35577;BME280;21680;52.400;16.920;2023-08-07T09:54:12;99456.15;;;17.95;71.23
35577;BME280;21680;52.400;16.920;2023-08-07T09:56:40;99453.36;;;18.00;70.84
35577;BME280;21680;52.400;16.920;2023-08-07T09:59:06;99475.11;;;18.09;69.66
35577;BME280;21680;52.400;16.920;2023-08-07T10:01:32;99458.41;;;18.11;69.26
35577;BME280;21680;52.400;16.920;2023-08-07T10:03:57;99459.72;;;18.09;68.48
35577;BME280;21680;52.400;16.920;2023-08-07T10:06:23;99449.67;;;18.08;69.39
35577;BME280;21680;52.400;16.920;2023-08-07T10:08:49;99439.88;;;18.17;70.39
35577;BME280;21680;52.400;16.920;2023-08-07T10:11:15;99454.09;;;18.30;70.78
35577;BME280;21680;52.400;16.920;2023-08-07T10:13:41;99459.98;;;18.35;69.57
35577;BME280;21680;52.400;16.920;2023-08-07T10:16:07;99455.13;;;18.29;69.27
35577;BME280;21680;52.400;16.920;2023-08-07T10:18:33;99451.05;;;18.28;69.24
35577;BME280;21680;52.400;16.920;2023-08-07T10:21:01;99444.08;;;18.31;69.51
35577;BME280;21680;52.400;16.920;2023-08-07T10:23:26;99442.92;;;18.39;69.75
35577;BME280;21680;52.400;16.920;2023-08-07T10:25:52;99442.95;;;18.43;70.02
35577;BME280;21680;52.400;16.920;2023-08-07T10:28:19;99446.17;;;18.45;70.40
35577;BME280;21680;52.400;16.920;2023-08-07T10:30:45;99447.01;;;18.42;70.35
35577;BME280;21680;52.400;16.920;2023-08-07T10:33:12;99455.33;;;18.33;70.88
35577;BME280;21680;52.400;16.920;2023-08-07T10:35:44;99465.65;;;18.23;70.76
35577;BME280;21680;52.400;16.920;2023-08-07T10:38:12;99460.23;;;18.06;70.02
35577;BME280;21680;52.400;16.920;2023-08-07T10:41:10;99453.15;;;17.87;70.40
35577;BME280;21680;52.400;16.920;2023-08-07T10:43:42;99451.72;;;17.85;70.39
35577;BME280;21680;52.400;16.920;2023-08-07T10:46:12;99453.61;;;17.90;70.56
35577;BME280;21680;52.400;16.920;2023-08-07T10:48:43;99448.70;;;18.00;70.73
35577;BME280;21680;52.400;16.920;2023-08-07T10:51:13;99456.64;;;18.04;69.69
35577;BME280;21680;52.400;16.920;2023-08-07T10:53:44;99445.79;;;17.98;69.76
35577;BME280;21680;52.400;16.920;2023-08-07T10:56:31;99453.23;;;17.90;69.74
35577;BME280;21680;52.400;16.920;2023-08-07T10:58:57;99450.15;;;17.80;69.37
35577;BME280;21680;52.400;16.920;2023-08-07T11:03:59;99453.11;;;17.59;69.02
35577;BME280;21680;52.400;16.920;2023-08-07T11:06:28;99459.87;;;17.60;69.08
35577;BME280;21680;52.400;16.920;2023-08-07T11:08:56;99452.20;;;17.61;68.75
35577;BME280;21680;52.400;16.920;2023-08-07T11:11:22;99454.94;;;17.61;69.41
35577;BME280;21680;52.400;16.920;2023-08-07T11:13:47;99454.80;;;17.59;69.56
35577;BME280;21680;52.400;16.920;2023-08-07T11:16:12;99455.33;;;17.55;69.91
35577;BME280;21680;52.400;16.920;2023-08-07T11:18:38;99461.17;;;17.56;70.38
35577;BME280;21680;52.400;16.920;2023-08-07T11:21:07;99458.08;;;17.65;70.80
35577;BME280;21680;52.400;16.920;2023-08-07T11:23:33;99464.79;;;17.78;70.44
35577;BME280;21680;52.400;16.920;2023-08-07T11:25:58;99463.96;;;17.93;70.22
35577;BME280;21680;52.400;16.920;2023-08-07T11:28:23;99453.02;;;18.17;70.88
35577;BME280;21680;52.400;16.920;2023-08-07T11:30:53;99453.45;;;18.39;70.99
35577;BME280;21680;52.400;16.920;2023-08-07T11:33:23;99460.18;;;18.65;70.26
35577;BME280;21680;52.400;16.920;2023-08-07T11:35:49;99469.30;;;18.78;68.14
35577;BME280;21680;52.400;16.920;2023-08-07T11:38:34;99475.98;;;18.82;68.41
35577;BME280;21680;52.400;16.920;2023-08-07T11:41:01;99487.03;;;18.84;67.87
35577;BME280;21680;52.400;16.920;2023-08-07T11:43:28;99480.11;;;18.86;67.44
35577;BME280;21680;52.400;16.920;2023-08-07T11:45:55;99487.38;;;19.00;67.69
35577;BME280;21680;52.400;16.920;2023-08-07T11:48:23;99484.17;;;19.15;67.16
35577;BME280;21680;52.400;16.920;2023-08-07T11:50:49;99486.41;;;19.27;66.91
35577;BME280;21680;52.400;16.920;2023-08-07T11:53:15;99496.58;;;19.31;64.32
35577;BME280;21680;52.400;16.920;2023-08-07T11:56:04;99492.28;;;19.26;65.12
35577;BME280;21680;52.400;16.920;2023-08-07T11:58:38;99493.31;;;19.30;65.05
35577;BME280;21680;52.400;16.920;2023-08-07T12:01:15;99513.33;;;19.33;64.58
35577;BME280;21680;52.400;16.920;2023-08-07T12:03:52;99511.51;;;19.24;63.04
35577;BME280;21680;52.400;16.920;2023-08-07T12:06:18;99516.75;;;19.15;62.91
35577;BME280;21680;52.400;16.920;2023-08-07T12:08:43;99513.06;;;19.13;63.44
35577;BME280;21680;52.400;16.920;2023-08-07T12:11:11;99532.49;;;19.17;63.12
35577;BME280;21680;52.400;16.920;2023-08-07T12:13:41;99537.38;;;19.19;62.29
35577;BME280;21680;52.400;16.920;2023-08-07T12:16:07;99529.05;;;19.19;61.11
35577;BME280;21680;52.400;16.920;2023-08-07T12:18:34;99550.32;;;19.12;60.20
35577;BME280;21680;52.400;16.920;2023-08-07T12:21:02;99556.36;;;18.98;59.26
35577;BME280;21680;52.400;16.920;2023-08-07T12:23:36;99553.11;;;18.85;59.08
35577;BME280;21680;52.400;16.920;2023-08-07T12:26:03;99543.52;;;18.75;59.80
35577;BME280;21680;52.400;16.920;2023-08-07T12:28:29;99543.55;;;18.71;59.95
35577;BME280;21680;52.400;16.920;2023-08-07T12:30:54;99546.44;;;18.68;60.37
35577;BME280;21680;52.400;16.920;2023-08-07T12:33:19;99554.19;;;18.66;60.77
35577;BME280;21680;52.400;16.920;2023-08-07T12:35:45;99549.10;;;18.64;60.97
35577;BME280;21680;52.400;16.920;2023-08-07T12:38:11;99559.21;;;18.65;60.78
35577;BME280;21680;52.400;16.920;2023-08-07T12:40:39;99563.95;;;18.61;60.56
35577;BME280;21680;52.400;16.920;2023-08-07T12:43:04;99576.73;;;18.51;60.36
35577;BME280;21680;52.400;16.920;2023-08-07T12:45:30;99574.19;;;18.40;60.60
35577;BME280;21680;52.400;16.920;2023-08-07T12:47:56;99563.27;;;18.35;61.31
35577;BME280;21680;52.400;16.920;2023-08-07T12:50:21;99567.67;;;18.24;61.53